createdAt,value
2023-01-29T00:01:46.950Z,22.22
2023-01-29T00:04:50.034Z,22.21
2023-01-29T00:07:54.573Z,22.22
2023-01-29T00:11:02.613Z,22.21
2023-01-29T00:14:08.371Z,22.21
2023-01-29T00:17:11.487Z,22.22
2023-01-29T00:20:15.800Z,22.20
2023-01-29T00:23:20.910Z,22.22
2023-01-29T00:26:24.305Z,22.22
2023-01-29T00:29:27.434Z,22.19
2023-01-29T00:32:30.505Z,22.24
2023-01-29T00:35:36.190Z,22.23
2023-01-29T00:38:41.083Z,22.22
2023-01-29T00:42:01.508Z,22.19
2023-01-29T00:45:04.690Z,22.18
2023-01-29T00:48:10.109Z,22.20
2023-01-29T00:51:13.198Z,22.20
2023-01-29T00:54:17.794Z,22.22
2023-01-29T00:57:20.884Z,22.22
2023-01-29T01:00:33.592Z,22.21
2023-01-29T01:03:42.116Z,22.10
2023-01-29T01:06:46.318Z,22.09
2023-01-29T01:10:08.461Z,22.16
2023-01-29T01:13:12.664Z,22.24
2023-01-29T01:16:18.838Z,22.16
2023-01-29T01:19:21.964Z,22.17
2023-01-29T01:22:24.993Z,22.21
2023-01-29T01:25:29.479Z,22.23
2023-01-29T01:28:35.314Z,22.24
2023-01-29T01:31:38.519Z,22.21
2023-01-29T01:34:41.569Z,22.23
2023-01-29T01:37:45.736Z,22.24
2023-01-29T01:40:50.103Z,22.20
2023-01-29T01:43:55.718Z,22.21
2023-01-29T01:46:58.736Z,22.18
2023-01-29T01:50:07.673Z,22.22
2023-01-29T01:53:13.909Z,22.21
2023-01-29T01:56:24.969Z,22.20
2023-01-29T01:59:28.255Z,22.21
2023-01-29T02:02:48.670Z,22.23
2023-01-29T02:06:14.508Z,22.23
2023-01-29T02:09:34.544Z,22.22
2023-01-29T02:12:39.777Z,22.22
2023-01-29T02:15:48.633Z,22.24
2023-01-29T02:18:52.397Z,22.23
2023-01-29T02:22:29.304Z,22.21
2023-01-29T02:26:05.527Z,22.24
2023-01-29T02:29:27.345Z,22.23
2023-01-29T02:32:36.027Z,22.23
2023-01-29T02:35:44.861Z,22.22
2023-01-29T02:38:56.515Z,22.23
2023-01-29T02:42:04.157Z,22.27
2023-01-29T02:45:14.906Z,22.23
2023-01-29T02:48:23.939Z,22.26
2023-01-29T02:51:36.418Z,22.27
2023-01-29T02:54:46.552Z,22.21
2023-01-29T02:57:52.889Z,22.18
2023-01-29T03:01:01.984Z,22.28
2023-01-29T03:04:09.501Z,22.22
2023-01-29T03:07:37.668Z,22.24
2023-01-29T03:10:46.822Z,22.26
2023-01-29T03:13:54.605Z,22.27
2023-01-29T03:16:59.483Z,22.24
2023-01-29T03:20:06.414Z,22.27
2023-01-29T03:23:15.517Z,22.26
2023-01-29T03:26:39.883Z,22.24
2023-01-29T03:30:02.848Z,22.25
2023-01-29T03:33:11.355Z,22.27
2023-01-29T03:36:19.773Z,22.28
2023-01-29T03:39:24.047Z,22.21
2023-01-29T03:42:34.109Z,22.27
2023-01-29T03:45:43.995Z,22.27
2023-01-29T03:48:54.950Z,22.28
2023-01-29T03:52:02.337Z,22.19
2023-01-29T03:55:11.797Z,22.24
2023-01-29T03:58:26.800Z,22.28
2023-01-29T04:01:35.368Z,22.28
2023-01-29T04:04:43.057Z,22.30
2023-01-29T04:07:47.913Z,22.27
2023-01-29T04:10:53.647Z,22.29
2023-01-29T04:13:58.360Z,22.28
2023-01-29T04:17:06.727Z,22.22
2023-01-29T04:20:12.860Z,22.28
2023-01-29T04:23:23.653Z,22.30
2023-01-29T04:26:40.195Z,22.28
2023-01-29T04:29:57.593Z,22.23
2023-01-29T04:33:09.838Z,22.30
2023-01-29T04:36:27.522Z,22.28
2023-01-29T04:39:35.757Z,22.31
2023-01-29T04:42:47.925Z,22.28
2023-01-29T04:46:05.489Z,22.27
2023-01-29T04:49:21.061Z,22.23
2023-01-29T04:52:39.854Z,22.30
2023-01-29T04:55:48.702Z,22.26
2023-01-29T04:58:56.933Z,22.31
2023-01-29T05:02:02.036Z,22.31
2023-01-29T05:05:09.496Z,22.31
2023-01-29T05:08:17.550Z,22.32
2023-01-29T05:11:21.713Z,22.29
2023-01-29T05:14:30.537Z,22.28
2023-01-29T05:17:33.605Z,22.31
2023-01-29T05:20:40.027Z,22.31
2023-01-29T05:23:53.433Z,22.31
2023-01-29T05:27:16.361Z,22.22
2023-01-29T05:30:19.791Z,22.31
2023-01-29T05:33:24.561Z,22.27
2023-01-29T05:36:29.940Z,22.33
2023-01-29T05:39:34.473Z,22.32
2023-01-29T05:42:37.527Z,22.26
2023-01-29T05:45:40.572Z,22.27
2023-01-29T05:48:45.638Z,22.31
2023-01-29T05:51:48.624Z,22.29
2023-01-29T05:54:53.031Z,22.31
2023-01-29T06:01:15.168Z,22.24
2023-01-29T06:04:21.416Z,22.30
2023-01-29T06:07:24.436Z,22.28
2023-01-29T06:10:28.864Z,22.30
2023-01-29T06:13:34.465Z,22.27
2023-01-29T06:16:37.459Z,22.24
2023-01-29T06:19:40.554Z,22.26
2023-01-29T06:22:43.508Z,22.10
2023-01-29T06:25:47.948Z,22.19
2023-01-29T06:28:51.143Z,22.27
2023-01-29T06:31:54.399Z,22.22
2023-01-29T06:34:57.624Z,22.24
2023-01-29T06:38:00.625Z,22.20
2023-01-29T06:41:11.630Z,22.11
2023-01-29T06:44:14.703Z,22.21
2023-01-29T06:47:17.754Z,22.25
2023-01-29T06:50:20.967Z,22.27
2023-01-29T06:53:26.822Z,22.31
2023-01-29T06:56:31.361Z,22.29
2023-01-29T06:59:34.497Z,22.31
2023-01-29T07:02:37.602Z,22.07
2023-01-29T07:05:40.792Z,21.81
2023-01-29T07:08:43.794Z,21.85
2023-01-29T07:11:50.444Z,21.70
2023-01-29T07:14:53.516Z,21.72
2023-01-29T07:18:02.436Z,21.71
2023-01-29T07:21:07.503Z,21.67
2023-01-29T07:24:10.682Z,21.53
2023-01-29T07:27:15.240Z,21.66
2023-01-29T07:30:19.268Z,21.37
2023-01-29T07:36:39.326Z,20.31
2023-01-29T07:39:42.406Z,20.13
2023-01-29T07:42:46.961Z,19.89
2023-01-29T07:45:52.418Z,19.63
2023-01-29T07:48:55.541Z,19.36
2023-01-29T07:51:58.689Z,19.35
2023-01-29T07:55:01.794Z,19.39
2023-01-29T07:58:08.256Z,19.35
2023-01-29T08:01:11.439Z,19.56
2023-01-29T08:04:16.439Z,20.26
2023-01-29T08:07:21.556Z,20.65
2023-01-29T08:10:24.536Z,20.89
2023-01-29T08:13:28.987Z,21.07
2023-01-29T08:16:32.036Z,21.16
2023-01-29T08:19:35.878Z,21.19
2023-01-29T08:22:39.052Z,21.33
2023-01-29T08:25:42.220Z,21.41
2023-01-29T08:28:46.613Z,21.43
2023-01-29T08:31:49.969Z,21.43
2023-01-29T08:34:54.898Z,21.45
2023-01-29T08:37:59.539Z,21.47
2023-01-29T08:41:02.720Z,21.46
2023-01-29T08:44:07.382Z,21.51
2023-01-29T08:47:10.377Z,21.64
2023-01-29T08:50:13.433Z,21.65
2023-01-29T08:53:16.520Z,21.70
2023-01-29T08:56:20.743Z,21.74
2023-01-29T08:59:25.383Z,21.76
2023-01-29T09:02:28.569Z,21.79
2023-01-29T09:05:33.439Z,21.80
2023-01-29T09:08:36.458Z,21.81
2023-01-29T09:11:40.649Z,21.78
2023-01-29T09:14:52.177Z,21.78
2023-01-29T09:17:55.398Z,21.82
2023-01-29T09:20:58.570Z,21.84
2023-01-29T09:24:01.653Z,21.85
2023-01-29T09:27:05.281Z,21.86
2023-01-29T09:30:14.202Z,21.86
2023-01-29T09:33:17.274Z,21.84
2023-01-29T09:36:20.254Z,21.84
2023-01-29T09:39:23.273Z,21.94
2023-01-29T09:42:31.334Z,22.04
2023-01-29T09:45:37.126Z,22.11
2023-01-29T09:48:40.892Z,22.13
2023-01-29T09:51:49.488Z,22.17
2023-01-29T09:54:59.814Z,22.21
2023-01-29T09:58:11.852Z,22.19
2023-01-29T10:01:23.793Z,22.21
2023-01-29T10:04:58.724Z,22.21
2023-01-29T10:08:24.823Z,22.23
2023-01-29T10:11:39.914Z,22.23
2023-01-29T10:14:53.232Z,22.21
2023-01-29T10:18:12.146Z,22.26
2023-01-29T10:21:25.906Z,22.27
2023-01-29T10:24:38.542Z,22.30
2023-01-29T10:27:44.694Z,22.29
2023-01-29T10:30:50.929Z,21.98
2023-01-29T10:34:02.589Z,21.95
2023-01-29T10:37:18.653Z,21.77
2023-01-29T10:40:25.694Z,21.78
2023-01-29T10:43:43.778Z,21.75
2023-01-29T10:47:04.538Z,21.76
2023-01-29T10:50:20.556Z,21.74
2023-01-29T10:53:42.227Z,21.74
2023-01-29T10:57:05.560Z,21.72
2023-01-29T11:00:14.307Z,21.68
2023-01-29T11:03:28.489Z,21.64
2023-01-29T11:06:34.973Z,21.55
2023-01-29T11:09:45.629Z,21.59
2023-01-29T11:12:48.714Z,21.55
2023-01-29T11:15:54.010Z,21.56
2023-01-29T11:18:59.596Z,21.55
2023-01-29T11:22:04.551Z,21.63
2023-01-29T11:25:16.842Z,21.58
2023-01-29T11:28:37.421Z,21.48
2023-01-29T11:31:41.442Z,21.45
2023-01-29T11:35:11.349Z,21.39
2023-01-29T11:38:24.739Z,21.39
2023-01-29T11:41:29.687Z,21.37
2023-01-29T11:44:37.755Z,21.34
2023-01-29T11:47:40.770Z,21.34
2023-01-29T11:50:45.230Z,21.32
2023-01-29T11:53:53.874Z,21.32
2023-01-29T11:56:57.524Z,21.29
2023-01-29T12:00:06.483Z,21.28
2023-01-29T12:03:16.625Z,21.26
2023-01-29T12:06:25.131Z,21.26
2023-01-29T12:09:31.463Z,21.26
2023-01-29T12:12:40.011Z,21.27
2023-01-29T12:15:44.247Z,21.26
2023-01-29T12:18:52.845Z,21.27
2023-01-29T12:22:03.733Z,21.27
2023-01-29T12:25:19.510Z,21.27
2023-01-29T12:28:38.256Z,21.30
2023-01-29T12:31:49.969Z,21.31
2023-01-29T12:35:00.314Z,21.32
2023-01-29T12:38:08.353Z,21.26
2023-01-29T12:41:28.256Z,21.34
2023-01-29T12:44:36.749Z,21.34
2023-01-29T12:47:46.061Z,21.31
2023-01-29T12:51:01.420Z,21.33
2023-01-29T12:54:09.148Z,21.29
2023-01-29T12:57:22.126Z,21.31
2023-01-29T13:00:28.344Z,21.30
2023-01-29T13:03:41.221Z,21.22
2023-01-29T13:06:49.240Z,21.28
2023-01-29T13:10:01.113Z,21.26
2023-01-29T13:13:15.465Z,21.26
2023-01-29T13:16:22.987Z,21.25
2023-01-29T13:19:30.748Z,21.25
2023-01-29T13:22:39.300Z,21.26
2023-01-29T13:25:42.393Z,21.25
2023-01-29T13:28:50.052Z,21.26
2023-01-29T13:31:55.306Z,21.30
2023-01-29T13:35:01.934Z,21.35
2023-01-29T13:38:06.523Z,21.38
2023-01-29T13:41:09.821Z,21.35
2023-01-29T13:44:24.703Z,21.39
2023-01-29T13:47:29.978Z,21.42
2023-01-29T13:50:38.398Z,21.41
2023-01-29T13:54:02.561Z,21.39
2023-01-29T13:57:07.636Z,21.39
2023-01-29T14:01:01.292Z,21.37
2023-01-29T14:04:25.556Z,21.38
2023-01-29T14:07:51.132Z,21.36
2023-01-29T14:11:36.238Z,21.34
2023-01-29T14:15:04.345Z,21.35
2023-01-29T14:18:27.247Z,21.32
2023-01-29T14:21:32.295Z,21.33
2023-01-29T14:24:35.554Z,21.31
2023-01-29T14:27:38.870Z,21.33
2023-01-29T14:30:48.153Z,21.36
2023-01-29T14:33:54.433Z,21.34
2023-01-29T14:37:02.150Z,21.29
2023-01-29T14:40:20.153Z,21.25
2023-01-29T14:43:23.257Z,21.26
2023-01-29T14:46:54.011Z,21.25
2023-01-29T14:49:59.764Z,21.26
2023-01-29T14:53:10.747Z,21.20
2023-01-29T14:56:18.182Z,21.26
2023-01-29T14:59:25.513Z,21.25
2023-01-29T15:02:37.320Z,21.09
2023-01-29T15:05:44.437Z,21.15
2023-01-29T15:08:55.033Z,21.10
2023-01-29T15:12:06.531Z,21.20
2023-01-29T15:15:18.408Z,21.27
2023-01-29T15:18:32.689Z,21.23
2023-01-29T15:21:39.663Z,21.19
2023-01-29T15:24:44.733Z,20.90
2023-01-29T15:27:47.878Z,21.21
2023-01-29T15:30:55.566Z,21.30
2023-01-29T15:34:00.275Z,21.32
2023-01-29T15:37:04.700Z,21.32
2023-01-29T15:40:16.825Z,21.36
2023-01-29T15:43:23.697Z,21.32
2023-01-29T15:46:29.492Z,21.36
2023-01-29T15:49:36.637Z,21.44
2023-01-29T15:52:41.748Z,21.54
2023-01-29T15:55:48.215Z,21.58
2023-01-29T15:58:53.997Z,21.61
2023-01-29T16:01:57.406Z,21.67
2023-01-29T16:05:00.977Z,21.55
2023-01-29T16:08:07.503Z,21.71
2023-01-29T16:11:11.186Z,21.72
2023-01-29T16:14:17.689Z,21.73
2023-01-29T16:17:35.221Z,21.72
2023-01-29T16:20:42.524Z,21.66
2023-01-29T16:23:51.205Z,21.67
2023-01-29T16:27:00.429Z,21.59
2023-01-29T16:30:05.355Z,21.65
2023-01-29T16:33:13.483Z,21.64
2023-01-29T16:36:19.627Z,21.63
2023-01-29T16:39:27.153Z,21.60
2023-01-29T16:42:31.757Z,21.54
2023-01-29T16:45:34.882Z,21.49
2023-01-29T16:48:37.897Z,21.44
2023-01-29T16:51:41.033Z,21.40
2023-01-29T16:54:45.638Z,21.29
2023-01-29T16:57:53.982Z,21.39
2023-01-29T17:01:01.177Z,21.35
2023-01-29T17:04:12.484Z,21.38
2023-01-29T17:07:21.340Z,21.38
2023-01-29T17:10:28.514Z,21.37
2023-01-29T17:13:37.686Z,21.42
2023-01-29T17:16:51.616Z,21.38
2023-01-29T17:19:54.655Z,21.36
2023-01-29T17:22:57.867Z,21.36
2023-01-29T17:26:02.672Z,21.37
2023-01-29T17:29:05.711Z,21.34
2023-01-29T17:32:10.640Z,21.32
2023-01-29T17:35:14.352Z,21.31
2023-01-29T17:38:25.939Z,21.28
2023-01-29T17:41:32.303Z,21.26
2023-01-29T17:44:35.590Z,21.20
2023-01-29T17:47:38.668Z,21.23
2023-01-29T17:50:44.044Z,21.32
2023-01-29T17:53:47.653Z,21.20
2023-01-29T17:56:53.402Z,21.39
2023-01-29T17:59:56.564Z,21.40
2023-01-29T18:03:02.477Z,21.43
2023-01-29T18:06:10.552Z,21.41
2023-01-29T18:09:15.181Z,21.42
2023-01-29T18:12:20.892Z,21.44
2023-01-29T18:15:23.892Z,21.46
2023-01-29T18:18:27.773Z,21.46
2023-01-29T18:21:30.813Z,21.46
2023-01-29T18:24:37.341Z,21.47
2023-01-29T18:27:43.344Z,21.52
2023-01-29T18:30:47.572Z,21.51
2023-01-29T18:33:54.473Z,21.54
2023-01-29T18:36:57.407Z,21.50
2023-01-29T18:40:03.534Z,21.52
2023-01-29T18:43:08.007Z,21.50
2023-01-29T18:46:12.374Z,21.54
2023-01-29T18:49:15.385Z,21.51
2023-01-29T18:52:18.545Z,21.54
2023-01-29T18:55:22.035Z,21.52
2023-01-29T18:58:35.697Z,21.50
2023-01-29T19:01:39.541Z,21.54
2023-01-29T19:04:42.652Z,21.50
2023-01-29T19:07:45.686Z,21.52
2023-01-29T19:10:48.756Z,21.49
2023-01-29T19:13:53.221Z,21.49
2023-01-29T19:16:56.727Z,21.53
2023-01-29T19:20:02.157Z,21.48
2023-01-29T19:23:05.101Z,21.40
2023-01-29T19:26:09.216Z,21.47
2023-01-29T19:29:13.972Z,21.48
2023-01-29T19:32:17.025Z,21.50
2023-01-29T19:35:20.221Z,21.49
2023-01-29T19:38:23.402Z,21.47
2023-01-29T19:41:26.442Z,21.46
2023-01-29T19:44:32.063Z,21.48
2023-01-29T19:47:41.362Z,21.45
2023-01-29T19:50:44.736Z,21.42
2023-01-29T19:53:47.804Z,21.36
2023-01-29T19:56:51.198Z,21.38
2023-01-29T19:59:55.730Z,21.42
2023-01-29T20:02:58.769Z,21.45
2023-01-29T20:06:09.244Z,21.45
2023-01-29T20:09:12.628Z,21.44
2023-01-29T20:12:16.490Z,21.39
2023-01-29T20:15:21.245Z,21.38
2023-01-29T20:18:24.513Z,21.25
2023-01-29T20:21:27.782Z,21.32
2023-01-29T20:24:32.159Z,21.29
2023-01-29T20:27:35.282Z,21.29
2023-01-29T20:30:42.705Z,21.29
2023-01-29T20:33:47.988Z,21.22
2023-01-29T20:36:51.243Z,21.14
2023-01-29T20:39:57.058Z,21.00
2023-01-29T20:43:00.975Z,21.10
2023-01-29T20:46:06.193Z,21.09
2023-01-29T20:49:09.541Z,21.09
2023-01-29T20:52:14.155Z,21.09
2023-01-29T20:55:17.153Z,21.08
2023-01-29T20:58:20.315Z,21.07
2023-01-29T21:01:24.740Z,21.06
2023-01-29T21:04:27.783Z,21.05
2023-01-29T21:07:30.942Z,21.04
2023-01-29T21:10:37.665Z,21.00
2023-01-29T21:13:40.847Z,21.03
2023-01-29T21:16:45.370Z,21.02
2023-01-29T21:19:48.497Z,21.00
2023-01-29T21:22:51.585Z,21.01
2023-01-29T21:25:57.483Z,21.01
2023-01-29T21:29:00.569Z,20.93
2023-01-29T21:32:05.261Z,20.99
2023-01-29T21:35:09.381Z,20.87
2023-01-29T21:38:12.402Z,20.99
2023-01-29T21:41:15.554Z,21.00
2023-01-29T21:44:17.591Z,20.97
2023-01-29T21:47:27.534Z,20.97
2023-01-29T21:50:32.397Z,20.98
2023-01-29T21:53:38.615Z,20.96
2023-01-29T21:59:50.475Z,20.86
2023-01-29T22:02:57.730Z,20.92
2023-01-29T22:06:00.785Z,20.92
2023-01-29T22:09:03.920Z,20.91
2023-01-29T22:12:08.931Z,20.92
2023-01-29T22:15:13.111Z,20.89
2023-01-29T22:18:17.586Z,20.89
2023-01-29T22:21:20.600Z,20.89
2023-01-29T22:24:23.907Z,20.90
2023-01-29T22:27:27.075Z,20.89
2023-01-29T22:30:30.142Z,20.89
2023-01-29T22:33:34.813Z,20.90
2023-01-29T22:36:40.739Z,20.89
2023-01-29T22:39:43.915Z,20.89
2023-01-29T22:42:47.030Z,20.90
2023-01-29T22:45:50.147Z,20.82
2023-01-29T22:48:57.313Z,20.88
2023-01-29T22:52:12.456Z,20.80
2023-01-29T22:55:15.497Z,20.85
2023-01-29T22:58:18.536Z,20.85
2023-01-29T23:01:22.706Z,20.86
2023-01-29T23:04:27.222Z,20.87
2023-01-29T23:07:32.613Z,20.85
2023-01-29T23:10:35.645Z,20.85
2023-01-29T23:13:38.678Z,20.86
2023-01-29T23:16:43.867Z,20.84
2023-01-29T23:19:48.401Z,20.83
2023-01-29T23:22:51.739Z,20.85
2023-01-29T23:26:16.032Z,20.84
2023-01-29T23:29:19.034Z,20.83
2023-01-29T23:32:22.815Z,20.82
2023-01-29T23:35:27.275Z,20.85
2023-01-29T23:38:30.260Z,20.83
2023-01-29T23:41:34.788Z,20.83
2023-01-29T23:44:37.857Z,20.72
2023-01-29T23:47:40.929Z,20.82
2023-01-29T23:50:45.624Z,20.81
2023-01-29T23:53:50.522Z,20.81
2023-01-29T23:56:55.339Z,20.80
2023-01-29T23:59:58.475Z,20.80
